Tyrone, Missouri
Current Conditions -  °F | °C
As of 1:53 AM on Thursday 29 Jan 2015 (Local Time) from KUNO Reporting Station
Clear Clear  
Wind Chill: 51°   Ceiling: Unl
Heat Index: 51°   Visibility: 10mi
Dew Point: 39°   Wind: 8mph
Humidity: 63%   Direction: 210°SSW
Pressure: 29.9"   Gusts: NA
Location:  37.3091°N, 91.9516°W
Report Text: KUNO 290753Z AUTO 21007KT 10SM CLR 11/04 A2990 RMK AO2 SLP122 T01060039
Loading
Personal Weather Stations






























Interactive Weather Map New forecast layout! Learn more

10-Day Weather Forecast

Advertisements
Track Severe Weather on mobile